D/T METAR WX W/DIR W/SPE G/SPE TEMP DEWP
16/01/19 03:50 EGPU 160350Z AUTO 26018KT 9999 FEW017/// 07/05 Q0994 RERA W (260°) 20.7mph 7°C 5°C
16/01/19 03:20 EGPU 160320Z AUTO 26015KT 9999 FEW014/// 07/06 Q0995 RERA W (260°) 17.3mph 7°C 6°C
16/01/19 02:50 EGPU 160250Z AUTO 25018KT 6000 RA FEW015/// SCT024/// 07/06 Q0995 RA WSW (250°) 20.7mph 7°C 6°C
16/01/19 02:20 EGPU 160220Z AUTO 25011KT 9999 SCT038/// 07/06 Q0995 RERA WSW (250°) 12.7mph 7°C 6°C
16/01/19 01:50 EGPU 160150Z AUTO 25013KT 9000 -RA FEW012/// BKN023/// 07/06 Q0996 -RA WSW (250°) 15.0mph 7°C 6°C
16/01/19 01:20 EGPU 160120Z AUTO 24009KT 9999 -RA BKN042/// 07/06 Q0996 -RA WSW (240°) 10.4mph 7°C 6°C
16/01/19 00:50 EGPU 160050Z AUTO 24010KT 9999 -RA FEW012/// BKN020/// 07/07 Q0996 -RA WSW (240°) 11.5mph 7°C 7°C
16/01/19 00:20 EGPU 160020Z AUTO 24009KT 200V260 9999 -RA FEW012/// BKN039/// 08/07 Q0996 -RA WSW (240°) 10.4mph 8°C 7°C
15/01/19 23:50 EGPU 152350Z AUTO 26008KT 9000 RA FEW015/// SCT026/// BKN041/// 07/06 Q0997 RA W (260°) 9.2mph 7°C 6°C
15/01/19 23:20 EGPU 152320Z AUTO 24010KT 8000 -RA BKN039/// 08/07 Q0997 -RA WSW (240°) 11.5mph 8°C 7°C
15/01/19 22:50 EGPU 152250Z AUTO 27012KT 9000 -RA FEW039/// 08/07 Q0997 -RA W (270°) 13.8mph 8°C 7°C
15/01/19 22:20 EGPU 152220Z AUTO 26012KT 5000 -RA FEW024/// SCT031/// 08/07 Q0998 -RA W (260°) 13.8mph 8°C 7°C
15/01/19 21:50 EGPU 152150Z AUTO 28017KT 4300 -RA FEW012/// BKN042/// 08/07 Q0998 -RA W (280°) 19.6mph 8°C 7°C
15/01/19 21:20 EGPU 152120Z AUTO 23017KT 9999 FEW006/// BKN034/// 09/08 Q0998 RERA SW (230°) 19.6mph 9°C 8°C
15/01/19 20:50 EGPU 152050Z AUTO 22023KT 2800 BR BKN005/// BKN015/// 10/09 Q0998 RERA BR SW (220°) 26.5mph 10°C 9°C
15/01/19 20:20 EGPU 152020Z AUTO 22022KT 180V240 2500 -DZ OVC006/// 10/09 Q0998 -DZ SW (220°) 25.3mph 10°C 9°C
15/01/19 19:50 EGPU 151950Z AUTO 22023KT 5000 BR BKN008/// BKN015/// 10/09 Q0999 RERA BR SW (220°) 26.5mph 10°C 9°C
15/01/19 19:20 EGPU 151920Z AUTO 22023KT 8000 SCT008/// BKN016/// 10/09 Q0999 RERA SW (220°) 26.5mph 10°C 9°C
15/01/19 18:50 EGPU 151850Z AUTO 22024KT 180V250 6000 -RADZ FEW010/// BKN013/// BKN020/// 10/08 Q1000 -RA -DZ SW (220°) 27.6mph 10°C 8°C
15/01/19 18:20 EGPU 151820Z 22021KT 9999 SCT013 BKN021 10/08 Q1000 SW (220°) 24.2mph 10°C 8°C
15/01/19 17:50 EGPU 151750Z 22020KT 9999 SCT013 BKN024 10/08 Q1001 SW (220°) 23.0mph 10°C 8°C
15/01/19 17:20 EGPU 151720Z 22021KT 9999 SCT013 BKN024 10/08 Q1001 SW (220°) 24.2mph 10°C 8°C
15/01/19 16:50 EGPU 151650Z 22020KT 9999 SCT016 BKN045 10/08 Q1002 SW (220°) 23.0mph 10°C 8°C
15/01/19 16:20 EGPU 151620Z 22018KT 9999 FEW012 BKN043 09/08 Q1002 SW (220°) 20.7mph 9°C 8°C
15/01/19 15:50 EGPU 151550Z 23022KT 9999 SCT012 SCT030 09/08 Q1003 SW (230°) 25.3mph 9°C 8°C
15/01/19 15:20 EGPU 151520Z 22020KT 9999 BKN015 SCT021 10/08 Q1003 SW (220°) 23.0mph 10°C 8°C
15/01/19 14:50 EGPU 151450Z 22021KT 9999 FEW021 SCT028 BKN041 09/08 Q1004 SW (220°) 24.2mph 9°C 8°C
15/01/19 14:20 EGPU 151420Z 23023KT 9000 -RA FEW014 SCT021 09/07 Q1004 -RA SW (230°) 26.5mph 9°C 7°C
15/01/19 13:50 EGPU 151350Z 23020KT 9999 FEW025 SCT043 11/08 Q1005 SW (230°) 23.0mph 11°C 8°C
15/01/19 13:20 EGPU 151320Z 23019KT 9999 FEW025 BKN049 10/08 Q1005 SW (230°) 21.9mph 10°C 8°C
15/01/19 12:50 EGPU 151250Z AUTO 23023KT 9000 NCD 11/08 Q1006 SW (230°) 26.5mph 11°C 8°C
15/01/19 12:20 EGPU 151220Z 23020KT 9000 FEW012 SCT023 BKN049 10/09 Q1006 SW (230°) 23.0mph 10°C 9°C
15/01/19 11:50 EGPU 151150Z 23022KT 9000 BKN049 10/09 Q1007 SW (230°) 25.3mph 10°C 9°C
15/01/19 11:20 EGPU 151120Z 23021KT 9000 FEW011 SCT015 10/09 Q1007 SW (230°) 24.2mph 10°C 9°C
15/01/19 10:50 EGPU 151050Z 23021KT 9000 FEW010 SCT025 10/09 Q1007 SW (230°) 24.2mph 10°C 9°C
15/01/19 10:20 EGPU 151020Z 23022KT 9000 -RA SCT010 SCT016 BKN021 10/09 Q1007 -RA SW (230°) 25.3mph 10°C 9°C
15/01/19 09:50 EGPU 150950Z 23023KT 9000 -RA BKN010 BKN018 10/09 Q1008 -RA SW (230°) 26.5mph 10°C 9°C
15/01/19 09:20 EGPU 150920Z 23023KT 9000 -RA SCT010 SCT018 BKN038 10/09 Q1008 -RA SW (230°) 26.5mph 10°C 9°C
15/01/19 08:50 EGPU 150850Z 24021KT 9000 -RA SCT010 BKN038 10/09 Q1008 -RA WSW (240°) 24.2mph 10°C 9°C
15/01/19 08:20 EGPU 150820Z AUTO 24022KT 210V270 6000 SCT010/// BKN038/// 10/09 Q1008 WSW (240°) 25.3mph 10°C 9°C
15/01/19 07:50 EGPU 150750Z AUTO 24021KT 7000 SCT010/// BKN038/// 10/09 Q1008 WSW (240°) 24.2mph 10°C 9°C
15/01/19 07:20 EGPU 150720Z AUTO 24019KT 7000 SCT010/// BKN043/// 10/09 Q1008 WSW (240°) 21.9mph 10°C 9°C
15/01/19 06:50 EGPU 150650Z AUTO 24019KT 210V270 7000 BKN010/// BKN041/// 10/09 Q1009 WSW (240°) 21.9mph 10°C 9°C
15/01/19 06:20 EGPU 150620Z AUTO 24018KT 6000 BKN010/// SCT016/// BKN039/// 10/09 Q1009 WSW (240°) 20.7mph 10°C 9°C
15/01/19 05:50 EGPU 150550Z AUTO 24019KT 210V270 6000 SCT011/// BKN017/// 10/09 Q1009 WSW (240°) 21.9mph 10°C 9°C
15/01/19 05:20 EGPU 150520Z AUTO 24020KT 210V270 6000 FEW010/// SCT017/// BKN036/// 10/09 Q1009 RERA WSW (240°) 23.0mph 10°C 9°C
15/01/19 04:50 EGPU 150450Z AUTO 24020KT 210V270 5000 BR FEW003/// BKN010/// 10/10 Q1010 RERA BR WSW (240°) 23.0mph 10°C 10°C
15/01/19 04:20 EGPU 150420Z AUTO 25019KT 5000 -RADZ BKN003/// BKN014/// 10/10 Q1010 -RA -DZ WSW (250°) 21.9mph 10°C 10°C
15/01/19 03:50 EGPU 150350Z AUTO 25019KT 1600 BR OVC003/// 10/10 Q1010 BR WSW (250°) 21.9mph 10°C 10°C
15/01/19 03:20 EGPU 150320Z AUTO 25018KT 5000 BR BKN004/// SCT011/// 10/10 Q1010 RERA BR WSW (250°) 20.7mph 10°C 10°C
15/01/19 02:50 EGPU 150250Z AUTO 25020KT 2400 BR BKN004/// 10/10 Q1011 RERA BR WSW (250°) 23.0mph 10°C 10°C
15/01/19 02:20 EGPU 150220Z AUTO 25020KT 3100 -RADZ OVC006/// 10/10 Q1011 -RA -DZ WSW (250°) 23.0mph 10°C 10°C
15/01/19 01:50 EGPU 150150Z AUTO 25022KT 5000 BR OVC005/// 10/10 Q1011 RERA BR WSW (250°) 25.3mph 10°C 10°C
15/01/19 01:20 EGPU 150120Z AUTO 25022KT 220V280 4100 -RADZ OVC004/// 10/10 Q1011 -RA -DZ WSW (250°) 25.3mph 10°C 10°C
15/01/19 00:50 EGPU 150050Z AUTO 25020KT 3700 BR OVC004/// 10/10 Q1011 RERA BR WSW (250°) 23.0mph 10°C 10°C
15/01/19 00:20 EGPU 150020Z AUTO 24021KT 210V270 2600 -DZ BKN003/// 10/09 Q1011 -DZ WSW (240°) 24.2mph 10°C 9°C
14/01/19 23:50 EGPU 142350Z AUTO 24020KT 200V260 2100 -RA BKN003/// BKN008/// 10/09 Q1012 -RA WSW (240°) 23.0mph 10°C 9°C
14/01/19 23:20 EGPU 142320Z AUTO 24020KT 1700 BR BKN006/// 10/09 Q1012 BR WSW (240°) 23.0mph 10°C 9°C
14/01/19 22:50 EGPU 142250Z AUTO 24019KT 9000 BKN014/// SCT020/// 10/08 Q1012 WSW (240°) 21.9mph 10°C 8°C
14/01/19 22:20 EGPU 142220Z AUTO 24019KT 9999 BKN020/// 10/08 Q1013 WSW (240°) 21.9mph 10°C 8°C
14/01/19 21:50 EGPU 142150Z AUTO 24018KT 9999 BKN017/// 10/08 Q1013 WSW (240°) 20.7mph 10°C 8°C
14/01/19 21:20 EGPU 142120Z AUTO 24017KT 9999 BKN048/// 09/08 Q1013 WSW (240°) 19.6mph 9°C 8°C
14/01/19 20:50 EGPU 142050Z AUTO 24016KT 9999 BKN048/// 09/08 Q1013 WSW (240°) 18.4mph 9°C 8°C
14/01/19 20:20 EGPU 142020Z AUTO 24015KT 9999 BKN047/// 09/08 Q1014 WSW (240°) 17.3mph 9°C 8°C
14/01/19 19:50 EGPU 141950Z AUTO 24014KT 9999 FEW011/// 09/08 Q1014 WSW (240°) 16.1mph 9°C 8°C
14/01/19 19:20 EGPU 141920Z AUTO 25015KT 9999 BKN009/// 09/08 Q1014 WSW (250°) 17.3mph 9°C 8°C
14/01/19 18:50 EGPU 141850Z 24012KT 9999 SCT014 09/08 Q1014 WSW (240°) 13.8mph 9°C 8°C
14/01/19 18:20 EGPU 141820Z 24014KT 9999 FEW006 SCT011 09/08 Q1014 WSW (240°) 16.1mph 9°C 8°C
14/01/19 17:50 EGPU 141750Z 23017KT 9999 BKN006 09/08 Q1015 SW (230°) 19.6mph 9°C 8°C
14/01/19 17:20 EGPU 141720Z 23014KT 6000 BKN008 SCT039 09/08 Q1015 SW (230°) 16.1mph 9°C 8°C
14/01/19 16:50 EGPU 141650Z 23013KT 9999 -DZ FEW010 SCT017 BKN042 08/07 Q1015 -DZ SW (230°) 15.0mph 8°C 7°C
14/01/19 16:20 EGPU 141620Z 23014KT 8000 -DZ BKN009 SCT023 08/07 Q1016 -DZ SW (230°) 16.1mph 8°C 7°C
14/01/19 15:50 EGPU 141550Z AUTO 23012KT 9999 FEW016/// BKN021/// 08/06 Q1016 SW (230°) 13.8mph 8°C 6°C
14/01/19 15:20 EGPU 141520Z 24012KT 9999 SCT013 BKN021 08/06 Q1016 WSW (240°) 13.8mph 8°C 6°C
14/01/19 14:50 EGPU 141450Z 25013KT 9999 SCT033 BKN048 08/06 Q1017 WSW (250°) 15.0mph 8°C 6°C
14/01/19 14:20 EGPU 141420Z 27011KT 9999 FEW016 SCT030 08/06 Q1017 W (270°) 12.7mph 8°C 6°C
14/01/19 13:50 EGPU 141350Z 25011KT 9999 -DZ SCT030 BKN042 08/06 Q1017 -DZ WSW (250°) 12.7mph 8°C 6°C
14/01/19 13:20 EGPU 141320Z 26013KT 9999 FEW035 SCT045 08/05 Q1018 W (260°) 15.0mph 8°C 5°C
14/01/19 12:50 EGPU 141250Z 26013KT 9999 FEW032 BKN045 08/05 Q1018 W (260°) 15.0mph 8°C 5°C
14/01/19 12:20 EGPU 141220Z AUTO 29011KT 9999 BKN049/// 08/06 Q1018 RERA WNW (290°) 12.7mph 8°C 6°C
14/01/19 11:50 EGPU 141150Z 28016KT 9999 SCT024 SCT048 07/05 Q1019 W (280°) 18.4mph 7°C 5°C
14/01/19 11:20 EGPU 141120Z 28011KT 9999 SCT030 08/03 Q1018 W (280°) 12.7mph 8°C 3°C
14/01/19 10:50 EGPU 141050Z 29012KT 9999 FEW029 08/03 Q1019 WNW (290°) 13.8mph 8°C 3°C
14/01/19 10:20 EGPU 141020Z 29013KT 9999 FEW028 SCT044 08/03 Q1018 WNW (290°) 15.0mph 8°C 3°C
14/01/19 09:50 EGPU 140950Z 29014KT 9999 SCT028 SCT045 08/02 Q1018 WNW (290°) 16.1mph 8°C 2°C
14/01/19 09:20 EGPU 140920Z 29016KT 9999 FEW025 BKN042 08/02 Q1019 WNW (290°) 18.4mph 8°C 2°C
14/01/19 08:20 EGPU 140820Z AUTO 29007KT 9999 FEW036/// SCT041/// 07/04 Q1018 RERA WNW (290°) 8.1mph 7°C 4°C
14/01/19 07:50 EGPU 140750Z AUTO 28010KT 9999 BKN040/// BKN048/// 07/04 Q1018 RERA W (280°) 11.5mph 7°C 4°C
14/01/19 07:20 EGPU 140720Z AUTO 30018KT 9999 -RA BKN035/// 07/04 Q1018 -RA WNW (300°) 20.7mph 7°C 4°C
14/01/19 06:50 EGPU 140650Z AUTO 29018KT 270V330 9999 FEW022/// SCT041/// 07/04 Q1018 RERA WNW (290°) 20.7mph 7°C 4°C
14/01/19 06:20 EGPU 140620Z AUTO 30017KT 9999 FEW024/// 08/04 Q1018 WNW (300°) 19.6mph 8°C 4°C
14/01/19 05:50 EGPU 140550Z AUTO 31014KT 9999 NCD 07/04 Q1017 NW (310°) 16.1mph 7°C 4°C
14/01/19 05:20 EGPU 140520Z AUTO 31016KT 9999 NCD 07/04 Q1017 NW (310°) 18.4mph 7°C 4°C
14/01/19 04:50 EGPU 140450Z AUTO 31017KT 9999 FEW021/// 07/04 Q1017 NW (310°) 19.6mph 7°C 4°C
14/01/19 04:20 EGPU 140420Z AUTO 30018KT 9999 FEW016/// 07/05 Q1017 WNW (300°) 20.7mph 7°C 5°C
14/01/19 03:50 EGPU 140350Z AUTO 31018KT 9999 FEW021/// 07/04 Q1017 NW (310°) 20.7mph 7°C 4°C
14/01/19 03:20 EGPU 140320Z AUTO 31019KT 9999 FEW021/// SCT027/// 07/04 Q1017 RERA NW (310°) 21.9mph 7°C 4°C
14/01/19 02:50 EGPU 140250Z AUTO 30019KT 9999 FEW020/// 08/05 Q1017 RERA WNW (300°) 21.9mph 8°C 5°C
14/01/19 02:20 EGPU 140220Z AUTO 30019KT 9999 FEW021/// 07/04 Q1017 WNW (300°) 21.9mph 7°C 4°C
14/01/19 01:50 EGPU 140150Z AUTO 31020KT 9999 FEW024/// 07/04 Q1016 RERA NW (310°) 23.0mph 7°C 4°C
14/01/19 01:20 EGPU 140120Z AUTO 31020KT 9999 FEW018/// 07/05 Q1016 RERA NW (310°) 23.0mph 7°C 5°C
14/01/19 00:50 EGPU 140050Z AUTO 30018KT 9999 FEW020/// 08/05 Q1016 RERA WNW (300°) 20.7mph 8°C 5°C
14/01/19 00:20 EGPU 140020Z AUTO 31021KT 280V340 9999 NCD 07/04 Q1015 RERA NW (310°) 24.2mph 7°C 4°C
13/01/19 23:50 EGPU 132350Z AUTO 31022G33KT 7000 FEW034/// 07/04 Q1015 RERA NW (310°) 25.3mph 38.0mph 7°C 4°C
13/01/19 23:20 EGPU 132320Z AUTO 32019KT 9999 SCT030/// SCT041/// 08/04 Q1015 RERA NW (320°) 21.9mph 8°C 4°C
13/01/19 22:50 EGPU 132250Z AUTO 32021KT 9999 FEW029/// SCT036/// 08/04 Q1014 RERA NW (320°) 24.2mph 8°C 4°C
13/01/19 22:20 EGPU 132220Z AUTO 31018KT 280V340 9999 FEW021/// 07/05 Q1014 RERA NW (310°) 20.7mph 7°C 5°C
13/01/19 21:50 EGPU 132150Z AUTO 31022KT 9999 SCT025/// 08/05 Q1014 NW (310°) 25.3mph 8°C 5°C
13/01/19 21:20 EGPU 132120Z AUTO 31020KT 9999 FEW028/// 08/05 Q1014 NW (310°) 23.0mph 8°C 5°C
13/01/19 20:50 EGPU 132050Z AUTO 31024G35KT 9999 FEW036/// BKN045/// 08/04 Q1013 NW (310°) 27.6mph 40.3mph 8°C 4°C
13/01/19 20:20 EGPU 132020Z AUTO 32024KT 9999 FEW026/// SCT042/// 08/04 Q1012 RERA NW (320°) 27.6mph 8°C 4°C
13/01/19 19:50 EGPU 131950Z AUTO 32021KT 9999 FEW034/// 08/05 Q1012 RERA NW (320°) 24.2mph 8°C 5°C
13/01/19 19:20 EGPU 131920Z AUTO 31023KT 9999 FEW027/// SCT035/// 08/05 Q1011 NW (310°) 26.5mph 8°C 5°C
13/01/19 18:50 EGPU 131850Z AUTO 30027KT 9999 FEW025/// BKN034/// 08/05 Q1011 RERA WNW (300°) 31.1mph 8°C 5°C
13/01/19 18:20 EGPU 131820Z AUTO 30028KT 9999 SCT026/// 08/05 Q1010 RERA WNW (300°) 32.2mph 8°C 5°C
13/01/19 17:50 EGPU 131750Z AUTO 31032KT 260V340 9999 -RA FEW024/// BKN045/// 08/05 Q1010 -RA NW (310°) 36.8mph 8°C 5°C
13/01/19 17:20 EGPU 131720Z AUTO 30028G39KT 270V330 5000 -RA SCT028/// 08/05 Q1010 -RA WNW (300°) 32.2mph 44.9mph 8°C 5°C
13/01/19 16:50 EGPU 131650Z 30029G39KT 9000 VCSH FEW028 BKN039 08/05 Q1010 VCSH WNW (300°) 33.4mph 44.9mph 8°C 5°C
13/01/19 16:20 EGPU 131620Z 30030G40KT 9000 VCSH FEW025 BKN049 08/04 Q1009 VCSH WNW (300°) 34.5mph 46.0mph 8°C 4°C
13/01/19 15:50 EGPU 131550Z 30029G42KT 9000 VCSH FEW039 BKN048 08/05 Q1009 VCSH WNW (300°) 33.4mph 48.3mph 8°C 5°C
13/01/19 15:20 EGPU 131520Z 30030G40KT 9000 VCSH FEW025 SCT036 BKN048 08/05 Q1009 VCSH WNW (300°) 34.5mph 46.0mph 8°C 5°C
13/01/19 14:50 EGPU 131450Z 30023KT 270V330 9999 VCSH FEW025 BKN047 08/05 Q1009 VCSH WNW (300°) 26.5mph 8°C 5°C
13/01/19 14:20 EGPU 131420Z AUTO 29024KT 9999 FEW041/// 08/04 Q1009 RERA WNW (290°) 27.6mph 8°C 4°C
13/01/19 13:50 EGPU 131350Z AUTO 30028G38KT 9999 FEW026/// SCT031/// 08/05 Q1009 RERA WNW (300°) 32.2mph 43.7mph 8°C 5°C
13/01/19 13:20 EGPU 131320Z AUTO 30025KT 270V330 9999 FEW027/// 09/05 Q1009 WNW (300°) 28.8mph 9°C 5°C
13/01/19 12:50 EGPU 131250Z AUTO 29026KT 260V320 9999 FEW030/// BKN041/// 09/05 Q1009 RERA WNW (290°) 29.9mph 9°C 5°C
13/01/19 12:20 EGPU 131220Z AUTO 30024G34KT 9999 SCT048/// 09/05 Q1009 RERA WNW (300°) 27.6mph 39.1mph 9°C 5°C
13/01/19 11:50 EGPU 131150Z AUTO 30024KT 9999 FEW024/// 09/05 Q1009 RERA WNW (300°) 27.6mph 9°C 5°C
13/01/19 11:20 EGPU 131120Z AUTO 31027KT 9999 -RA FEW014/// SCT039/// 08/06 Q1009 -RA NW (310°) 31.1mph 8°C 6°C
13/01/19 10:50 EGPU 131050Z AUTO 30027KT 9999 SCT047/// 09/04 Q1009 RERA WNW (300°) 31.1mph 9°C 4°C
13/01/19 10:20 EGPU 131020Z AUTO 30027G38KT 270V330 9999 FEW030/// BKN042/// 08/05 Q1009 RERA WNW (300°) 31.1mph 43.7mph 8°C 5°C
13/01/19 09:50 EGPU 130950Z AUTO 29023KT 9000 NCD 09/06 Q1009 RERA WNW (290°) 26.5mph 9°C 6°C
13/01/19 09:20 EGPU 130920Z AUTO 29028G41KT 9000 -RA FEW030/// BKN036/// 08/06 Q1009 -RA WNW (290°) 32.2mph 47.2mph 8°C 6°C
13/01/19 08:50 EGPU 130850Z AUTO 29027KT 9000 NCD 09/06 Q1009 RERA WNW (290°) 31.1mph 9°C 6°C
13/01/19 08:20 EGPU 130820Z AUTO 29023KT 260V320 8000 FEW025/// BKN032/// 10/06 Q1008 WNW (290°) 26.5mph 10°C 6°C
13/01/19 07:50 EGPU 130750Z AUTO 29025KT 8000 FEW025/// BKN036/// 10/07 Q1008 WNW (290°) 28.8mph 10°C 7°C
13/01/19 07:20 EGPU 130720Z AUTO 29025G35KT 9000 FEW015/// BKN027/// 09/07 Q1008 WNW (290°) 28.8mph 40.3mph 9°C 7°C
13/01/19 06:50 EGPU 130650Z AUTO 28027G38KT 250V310 9999 BKN023/// 10/07 Q1008 W (280°) 31.1mph 43.7mph 10°C 7°C
13/01/19 06:20 EGPU 130620Z AUTO 29025KT 9999 FEW016/// BKN021/// 10/08 Q1009 WNW (290°) 28.8mph 10°C 8°C
13/01/19 05:50 EGPU 130550Z AUTO 28026KT 250V310 8000 FEW006/// BKN018/// 10/09 Q1008 W (280°) 29.9mph 10°C 9°C
13/01/19 05:20 EGPU 130520Z AUTO 28028G39KT 8000 SCT006/// BKN020/// 10/09 Q1009 W (280°) 32.2mph 44.9mph 10°C 9°C
13/01/19 04:50 EGPU 130450Z AUTO 28027G38KT 3500 BR BKN005/// SCT014/// 10/10 Q1009 BR W (280°) 31.1mph 43.7mph 10°C 10°C
13/01/19 04:20 EGPU 130420Z AUTO 27026G36KT 5000 BR OVC005/// 10/10 Q1009 BR W (270°) 29.9mph 41.4mph 10°C 10°C
13/01/19 03:50 EGPU 130350Z AUTO 27026G36KT 3600 BR OVC004/// 10/10 Q1009 BR W (270°) 29.9mph 41.4mph 10°C 10°C